sensor_id;sensor_type;location;lat;lon;timestamp;P1;durP1;ratioP1;P2;durP2;ratioP2
71667;SDS011;59504;54.806;9.640;2023-02-12T00:01:18;9.50;;;2.25;;
71667;SDS011;59504;54.806;9.640;2023-02-12T00:03:41;8.80;;;1.48;;
71667;SDS011;59504;54.806;9.640;2023-02-12T00:06:02;13.98;;;1.85;;
71667;SDS011;59504;54.806;9.640;2023-02-12T00:08:24;8.25;;;1.70;;
71667;SDS011;59504;54.806;9.640;2023-02-12T00:10:45;8.52;;;1.90;;
71667;SDS011;59504;54.806;9.640;2023-02-12T00:13:06;9.45;;;1.60;;
71667;SDS011;59504;54.806;9.640;2023-02-12T00:15:27;9.65;;;1.40;;
71667;SDS011;59504;54.806;9.640;2023-02-12T00:17:47;9.70;;;1.70;;
71667;SDS011;59504;54.806;9.640;2023-02-12T00:20:08;6.43;;;1.60;;
71667;SDS011;59504;54.806;9.640;2023-02-12T00:22:30;5.80;;;1.35;;
71667;SDS011;59504;54.806;9.640;2023-02-12T00:24:51;12.90;;;1.48;;
71667;SDS011;59504;54.806;9.640;2023-02-12T00:27:11;6.25;;;1.40;;
71667;SDS011;59504;54.806;9.640;2023-02-12T00:29:32;14.80;;;2.25;;
71667;SDS011;59504;54.806;9.640;2023-02-12T00:31:53;14.15;;;1.88;;
71667;SDS011;59504;54.806;9.640;2023-02-12T00:34:14;11.05;;;1.90;;
71667;SDS011;59504;54.806;9.640;2023-02-12T00:36:35;10.68;;;2.15;;
71667;SDS011;59504;54.806;9.640;2023-02-12T00:38:56;12.18;;;2.00;;
71667;SDS011;59504;54.806;9.640;2023-02-12T00:41:18;9.20;;;2.05;;
71667;SDS011;59504;54.806;9.640;2023-02-12T00:43:39;10.70;;;2.20;;
71667;SDS011;59504;54.806;9.640;2023-02-12T00:46:00;13.85;;;2.10;;
71667;SDS011;59504;54.806;9.640;2023-02-12T00:48:21;18.17;;;2.28;;
71667;SDS011;59504;54.806;9.640;2023-02-12T00:50:45;21.02;;;2.40;;
71667;SDS011;59504;54.806;9.640;2023-02-12T00:53:07;11.55;;;2.47;;
71667;SDS011;59504;54.806;9.640;2023-02-12T00:55:28;10.55;;;2.20;;
71667;SDS011;59504;54.806;9.640;2023-02-12T00:57:52;12.85;;;2.78;;
71667;SDS011;59504;54.806;9.640;2023-02-12T01:00:14;22.58;;;3.22;;
71667;SDS011;59504;54.806;9.640;2023-02-12T01:02:35;13.73;;;2.72;;
71667;SDS011;59504;54.806;9.640;2023-02-12T01:04:56;17.73;;;2.63;;
71667;SDS011;59504;54.806;9.640;2023-02-12T01:07:17;17.52;;;2.70;;
71667;SDS011;59504;54.806;9.640;2023-02-12T01:09:38;15.18;;;2.60;;
71667;SDS011;59504;54.806;9.640;2023-02-12T01:11:59;13.75;;;2.90;;
71667;SDS011;59504;54.806;9.640;2023-02-12T01:14:20;12.52;;;2.30;;
71667;SDS011;59504;54.806;9.640;2023-02-12T01:16:41;16.17;;;2.72;;
71667;SDS011;59504;54.806;9.640;2023-02-12T01:19:02;19.60;;;2.70;;
71667;SDS011;59504;54.806;9.640;2023-02-12T01:21:28;23.15;;;3.50;;
71667;SDS011;59504;54.806;9.640;2023-02-12T01:23:50;22.40;;;3.30;;
71667;SDS011;59504;54.806;9.640;2023-02-12T01:26:12;18.67;;;3.53;;
71667;SDS011;59504;54.806;9.640;2023-02-12T01:28:33;25.40;;;3.53;;
71667;SDS011;59504;54.806;9.640;2023-02-12T01:30:54;23.40;;;3.83;;
71667;SDS011;59504;54.806;9.640;2023-02-12T01:33:15;26.10;;;3.40;;
71667;SDS011;59504;54.806;9.640;2023-02-12T01:35:37;22.65;;;3.55;;
71667;SDS011;59504;54.806;9.640;2023-02-12T01:37:57;13.73;;;2.40;;
71667;SDS011;59504;54.806;9.640;2023-02-12T01:40:19;26.45;;;4.50;;
71667;SDS011;59504;54.806;9.640;2023-02-12T01:42:40;17.40;;;3.65;;
71667;SDS011;59504;54.806;9.640;2023-02-12T01:47:34;38.63;;;4.18;;
71667;SDS011;59504;54.806;9.640;2023-02-12T01:49:54;30.42;;;4.72;;
71667;SDS011;59504;54.806;9.640;2023-02-12T01:52:17;33.70;;;3.85;;
71667;SDS011;59504;54.806;9.640;2023-02-12T01:54:47;44.10;;;5.35;;
71667;SDS011;59504;54.806;9.640;2023-02-12T01:57:09;28.55;;;3.80;;
71667;SDS011;59504;54.806;9.640;2023-02-12T01:59:32;40.55;;;4.75;;
71667;SDS011;59504;54.806;9.640;2023-02-12T02:01:54;30.65;;;4.85;;
71667;SDS011;59504;54.806;9.640;2023-02-12T02:04:16;25.95;;;3.90;;
71667;SDS011;59504;54.806;9.640;2023-02-12T02:06:57;28.90;;;4.63;;
71667;SDS011;59504;54.806;9.640;2023-02-12T02:09:20;34.22;;;3.95;;
71667;SDS011;59504;54.806;9.640;2023-02-12T02:11:41;28.77;;;4.43;;
71667;SDS011;59504;54.806;9.640;2023-02-12T02:14:21;32.28;;;4.72;;
71667;SDS011;59504;54.806;9.640;2023-02-12T02:17:19;41.22;;;5.07;;
71667;SDS011;59504;54.806;9.640;2023-02-12T02:30:20;29.00;;;4.38;;
71667;SDS011;59504;54.806;9.640;2023-02-12T02:33:00;26.95;;;3.53;;
71667;SDS011;59504;54.806;9.640;2023-02-12T02:38:08;38.88;;;4.80;;
71667;SDS011;59504;54.806;9.640;2023-02-12T02:43:39;24.55;;;4.30;;
71667;SDS011;59504;54.806;9.640;2023-02-12T02:46:15;26.52;;;4.05;;
71667;SDS011;59504;54.806;9.640;2023-02-12T02:48:38;24.55;;;3.92;;
71667;SDS011;59504;54.806;9.640;2023-02-12T02:51:07;28.25;;;4.07;;
71667;SDS011;59504;54.806;9.640;2023-02-12T02:53:35;34.63;;;4.72;;
71667;SDS011;59504;54.806;9.640;2023-02-12T02:56:00;20.27;;;3.35;;
71667;SDS011;59504;54.806;9.640;2023-02-12T02:58:27;22.73;;;4.00;;
71667;SDS011;59504;54.806;9.640;2023-02-12T03:01:09;39.40;;;4.40;;
71667;SDS011;59504;54.806;9.640;2023-02-12T03:03:41;30.08;;;4.65;;
71667;SDS011;59504;54.806;9.640;2023-02-12T03:06:26;30.63;;;3.47;;
71667;SDS011;59504;54.806;9.640;2023-02-12T03:08:53;25.73;;;3.78;;
71667;SDS011;59504;54.806;9.640;2023-02-12T03:11:27;22.13;;;3.92;;
71667;SDS011;59504;54.806;9.640;2023-02-12T03:13:55;29.00;;;3.80;;
71667;SDS011;59504;54.806;9.640;2023-02-12T03:16:26;28.13;;;4.00;;
71667;SDS011;59504;54.806;9.640;2023-02-12T03:18:52;22.77;;;3.00;;
71667;SDS011;59504;54.806;9.640;2023-02-12T03:21:27;20.45;;;3.33;;
71667;SDS011;59504;54.806;9.640;2023-02-12T03:23:57;16.77;;;2.70;;
71667;SDS011;59504;54.806;9.640;2023-02-12T03:26:25;20.15;;;2.72;;
71667;SDS011;59504;54.806;9.640;2023-02-12T03:28:56;19.35;;;2.78;;
71667;SDS011;59504;54.806;9.640;2023-02-12T03:31:25;17.00;;;2.75;;
71667;SDS011;59504;54.806;9.640;2023-02-12T03:36:48;23.08;;;3.10;;
71667;SDS011;59504;54.806;9.640;2023-02-12T03:47:39;15.53;;;2.33;;
71667;SDS011;59504;54.806;9.640;2023-02-12T03:52:35;14.20;;;2.40;;
71667;SDS011;59504;54.806;9.640;2023-02-12T03:54:56;17.80;;;2.30;;
71667;SDS011;59504;54.806;9.640;2023-02-12T03:57:18;14.90;;;2.53;;
71667;SDS011;59504;54.806;9.640;2023-02-12T04:02:03;12.45;;;2.72;;
71667;SDS011;59504;54.806;9.640;2023-02-12T04:04:24;16.70;;;2.75;;
71667;SDS011;59504;54.806;9.640;2023-02-12T04:06:46;17.40;;;2.88;;
71667;SDS011;59504;54.806;9.640;2023-02-12T04:09:09;16.60;;;2.42;;
71667;SDS011;59504;54.806;9.640;2023-02-12T04:14:33;11.52;;;2.33;;
71667;SDS011;59504;54.806;9.640;2023-02-12T04:20:04;17.00;;;3.30;;
71667;SDS011;59504;54.806;9.640;2023-02-12T04:28:14;19.95;;;2.78;;
71667;SDS011;59504;54.806;9.640;2023-02-12T04:30:57;21.45;;;2.78;;
71667;SDS011;59504;54.806;9.640;2023-02-12T04:33:21;20.00;;;3.20;;
71667;SDS011;59504;54.806;9.640;2023-02-12T04:35:54;21.70;;;3.72;;
71667;SDS011;59504;54.806;9.640;2023-02-12T04:39:14;17.85;;;2.70;;
71667;SDS011;59504;54.806;9.640;2023-02-12T04:41:30;15.50;;;3.10;;
71667;SDS011;59504;54.806;9.640;2023-02-12T04:43:51;15.70;;;3.10;;
71667;SDS011;59504;54.806;9.640;2023-02-12T04:46:12;14.80;;;2.85;;
71667;SDS011;59504;54.806;9.640;2023-02-12T04:48:34;16.75;;;3.35;;
71667;SDS011;59504;54.806;9.640;2023-02-12T04:51:07;15.40;;;3.00;;
71667;SDS011;59504;54.806;9.640;2023-02-12T04:53:29;23.95;;;3.42;;
71667;SDS011;59504;54.806;9.640;2023-02-12T04:55:50;18.38;;;3.15;;
71667;SDS011;59504;54.806;9.640;2023-02-12T04:58:11;16.40;;;3.55;;
71667;SDS011;59504;54.806;9.640;2023-02-12T05:00:32;22.48;;;3.42;;
71667;SDS011;59504;54.806;9.640;2023-02-12T05:02:53;14.23;;;2.65;;
71667;SDS011;59504;54.806;9.640;2023-02-12T05:05:14;14.40;;;2.95;;
71667;SDS011;59504;54.806;9.640;2023-02-12T05:07:35;17.65;;;3.10;;
71667;SDS011;59504;54.806;9.640;2023-02-12T05:09:56;16.17;;;2.95;;
71667;SDS011;59504;54.806;9.640;2023-02-12T05:12:16;20.00;;;3.00;;
71667;SDS011;59504;54.806;9.640;2023-02-12T05:14:37;9.98;;;2.50;;
71667;SDS011;59504;54.806;9.640;2023-02-12T05:16:58;14.88;;;2.75;;
71667;SDS011;59504;54.806;9.640;2023-02-12T05:19:20;14.15;;;2.70;;
71667;SDS011;59504;54.806;9.640;2023-02-12T05:21:40;13.68;;;2.90;;
71667;SDS011;59504;54.806;9.640;2023-02-12T05:24:02;14.23;;;2.80;;
71667;SDS011;59504;54.806;9.640;2023-02-12T05:26:23;13.35;;;3.00;;
71667;SDS011;59504;54.806;9.640;2023-02-12T05:28:44;19.55;;;3.22;;
71667;SDS011;59504;54.806;9.640;2023-02-12T05:31:06;12.52;;;2.83;;
71667;SDS011;59504;54.806;9.640;2023-02-12T05:33:28;13.15;;;4.28;;
71667;SDS011;59504;54.806;9.640;2023-02-12T05:35:49;16.02;;;3.28;;
71667;SDS011;59504;54.806;9.640;2023-02-12T05:38:10;18.27;;;3.25;;
71667;SDS011;59504;54.806;9.640;2023-02-12T05:40:31;44.38;;;3.80;;
71667;SDS011;59504;54.806;9.640;2023-02-12T05:42:52;12.10;;;3.35;;
71667;SDS011;59504;54.806;9.640;2023-02-12T05:45:13;14.00;;;3.72;;
71667;SDS011;59504;54.806;9.640;2023-02-12T05:47:34;23.08;;;4.53;;
71667;SDS011;59504;54.806;9.640;2023-02-12T05:49:55;22.02;;;5.20;;
71667;SDS011;59504;54.806;9.640;2023-02-12T05:52:16;30.45;;;6.47;;
71667;SDS011;59504;54.806;9.640;2023-02-12T05:54:36;25.30;;;6.78;;
71667;SDS011;59504;54.806;9.640;2023-02-12T05:56:57;28.45;;;7.47;;
71667;SDS011;59504;54.806;9.640;2023-02-12T05:59:19;38.97;;;7.20;;
71667;SDS011;59504;54.806;9.640;2023-02-12T06:01:42;27.73;;;6.97;;
71667;SDS011;59504;54.806;9.640;2023-02-12T06:04:06;29.73;;;6.93;;
71667;SDS011;59504;54.806;9.640;2023-02-12T06:06:30;25.13;;;5.88;;
71667;SDS011;59504;54.806;9.640;2023-02-12T06:08:52;25.33;;;5.68;;
71667;SDS011;59504;54.806;9.640;2023-02-12T06:11:13;38.97;;;6.35;;
71667;SDS011;59504;54.806;9.640;2023-02-12T06:13:35;36.58;;;6.18;;
71667;SDS011;59504;54.806;9.640;2023-02-12T06:15:56;40.75;;;6.18;;
71667;SDS011;59504;54.806;9.640;2023-02-12T06:18:17;35.85;;;6.28;;
71667;SDS011;59504;54.806;9.640;2023-02-12T06:20:38;44.20;;;6.30;;
71667;SDS011;59504;54.806;9.640;2023-02-12T06:22:59;40.47;;;5.28;;
71667;SDS011;59504;54.806;9.640;2023-02-12T06:25:20;43.22;;;6.05;;
71667;SDS011;59504;54.806;9.640;2023-02-12T06:27:41;40.70;;;5.70;;
71667;SDS011;59504;54.806;9.640;2023-02-12T06:30:02;34.22;;;4.88;;
71667;SDS011;59504;54.806;9.640;2023-02-12T06:32:23;32.90;;;5.00;;
71667;SDS011;59504;54.806;9.640;2023-02-12T06:34:47;37.55;;;6.22;;
71667;SDS011;59504;54.806;9.640;2023-02-12T06:37:08;48.45;;;5.72;;
71667;SDS011;59504;54.806;9.640;2023-02-12T06:39:29;31.17;;;5.07;;
71667;SDS011;59504;54.806;9.640;2023-02-12T06:41:50;38.50;;;5.82;;
71667;SDS011;59504;54.806;9.640;2023-02-12T06:44:11;41.08;;;5.10;;
71667;SDS011;59504;54.806;9.640;2023-02-12T06:46:32;24.45;;;4.40;;
71667;SDS011;59504;54.806;9.640;2023-02-12T06:48:54;43.30;;;4.93;;
71667;SDS011;59504;54.806;9.640;2023-02-12T06:51:17;36.70;;;5.25;;
71667;SDS011;59504;54.806;9.640;2023-02-12T06:53:41;34.95;;;4.65;;
71667;SDS011;59504;54.806;9.640;2023-02-12T06:56:03;24.00;;;3.58;;
71667;SDS011;59504;54.806;9.640;2023-02-12T06:58:26;32.80;;;4.07;;
71667;SDS011;59504;54.806;9.640;2023-02-12T07:00:47;34.38;;;3.92;;
71667;SDS011;59504;54.806;9.640;2023-02-12T07:03:08;32.83;;;3.70;;
71667;SDS011;59504;54.806;9.640;2023-02-12T07:05:29;29.65;;;3.67;;
71667;SDS011;59504;54.806;9.640;2023-02-12T07:07:50;26.05;;;3.85;;
71667;SDS011;59504;54.806;9.640;2023-02-12T07:10:14;19.95;;;3.08;;
71667;SDS011;59504;54.806;9.640;2023-02-12T07:12:35;21.52;;;3.25;;
71667;SDS011;59504;54.806;9.640;2023-02-12T07:14:56;31.25;;;3.90;;
71667;SDS011;59504;54.806;9.640;2023-02-12T07:17:17;40.00;;;4.03;;
71667;SDS011;59504;54.806;9.640;2023-02-12T07:19:38;34.97;;;3.95;;
71667;SDS011;59504;54.806;9.640;2023-02-12T07:21:59;21.42;;;3.10;;
71667;SDS011;59504;54.806;9.640;2023-02-12T07:24:19;33.92;;;3.88;;
71667;SDS011;59504;54.806;9.640;2023-02-12T07:26:41;31.50;;;4.03;;
71667;SDS011;59504;54.806;9.640;2023-02-12T07:29:01;22.98;;;3.53;;
71667;SDS011;59504;54.806;9.640;2023-02-12T07:31:22;32.90;;;3.85;;
71667;SDS011;59504;54.806;9.640;2023-02-12T07:33:44;16.83;;;3.30;;
71667;SDS011;59504;54.806;9.640;2023-02-12T07:36:06;32.28;;;3.90;;
71667;SDS011;59504;54.806;9.640;2023-02-12T07:38:29;27.50;;;4.18;;
71667;SDS011;59504;54.806;9.640;2023-02-12T07:40:50;22.08;;;3.17;;
71667;SDS011;59504;54.806;9.640;2023-02-12T07:43:10;19.45;;;3.28;;
71667;SDS011;59504;54.806;9.640;2023-02-12T07:45:31;22.10;;;4.10;;
71667;SDS011;59504;54.806;9.640;2023-02-12T07:47:52;19.35;;;3.38;;
71667;SDS011;59504;54.806;9.640;2023-02-12T07:50:13;20.95;;;2.92;;
71667;SDS011;59504;54.806;9.640;2023-02-12T07:52:34;22.58;;;4.13;;
71667;SDS011;59504;54.806;9.640;2023-02-12T07:54:55;26.88;;;3.67;;
71667;SDS011;59504;54.806;9.640;2023-02-12T07:57:16;19.20;;;3.33;;
71667;SDS011;59504;54.806;9.640;2023-02-12T07:59:37;27.10;;;3.55;;
71667;SDS011;59504;54.806;9.640;2023-02-12T08:01:58;23.05;;;3.97;;
71667;SDS011;59504;54.806;9.640;2023-02-12T08:04:21;30.33;;;4.07;;
71667;SDS011;59504;54.806;9.640;2023-02-12T08:06:44;26.40;;;4.07;;
71667;SDS011;59504;54.806;9.640;2023-02-12T08:09:07;20.33;;;3.83;;
71667;SDS011;59504;54.806;9.640;2023-02-12T08:11:30;32.75;;;4.80;;
71667;SDS011;59504;54.806;9.640;2023-02-12T08:13:51;31.25;;;4.53;;
71667;SDS011;59504;54.806;9.640;2023-02-12T08:16:14;25.75;;;4.18;;
71667;SDS011;59504;54.806;9.640;2023-02-12T08:18:37;27.60;;;4.10;;
71667;SDS011;59504;54.806;9.640;2023-02-12T08:21:05;22.40;;;3.92;;
71667;SDS011;59504;54.806;9.640;2023-02-12T08:23:28;25.98;;;4.75;;
71667;SDS011;59504;54.806;9.640;2023-02-12T08:25:49;24.90;;;3.53;;
71667;SDS011;59504;54.806;9.640;2023-02-12T08:28:10;28.48;;;4.60;;
71667;SDS011;59504;54.806;9.640;2023-02-12T08:30:31;21.40;;;3.92;;
71667;SDS011;59504;54.806;9.640;2023-02-12T08:32:52;24.25;;;4.03;;
71667;SDS011;59504;54.806;9.640;2023-02-12T08:35:13;25.08;;;4.32;;
71667;SDS011;59504;54.806;9.640;2023-02-12T08:37:34;24.58;;;3.80;;
71667;SDS011;59504;54.806;9.640;2023-02-12T08:39:55;21.98;;;4.25;;
71667;SDS011;59504;54.806;9.640;2023-02-12T08:42:16;29.33;;;4.45;;
71667;SDS011;59504;54.806;9.640;2023-02-12T08:44:36;28.38;;;4.18;;
71667;SDS011;59504;54.806;9.640;2023-02-12T08:46:57;25.90;;;3.65;;
71667;SDS011;59504;54.806;9.640;2023-02-12T08:49:19;21.15;;;3.22;;
71667;SDS011;59504;54.806;9.640;2023-02-12T08:51:43;21.60;;;4.15;;
71667;SDS011;59504;54.806;9.640;2023-02-12T08:54:11;18.23;;;3.67;;
71667;SDS011;59504;54.806;9.640;2023-02-12T08:56:34;28.13;;;4.50;;
71667;SDS011;59504;54.806;9.640;2023-02-12T08:58:56;20.42;;;3.67;;
71667;SDS011;59504;54.806;9.640;2023-02-12T09:01:19;30.60;;;3.92;;
71667;SDS011;59504;54.806;9.640;2023-02-12T09:03:43;28.05;;;4.55;;
71667;SDS011;59504;54.806;9.640;2023-02-12T09:06:05;23.10;;;4.15;;
71667;SDS011;59504;54.806;9.640;2023-02-12T09:08:27;20.85;;;4.15;;
71667;SDS011;59504;54.806;9.640;2023-02-12T09:10:48;23.38;;;5.15;;
71667;SDS011;59504;54.806;9.640;2023-02-12T09:13:09;22.48;;;4.80;;
71667;SDS011;59504;54.806;9.640;2023-02-12T09:15:35;26.80;;;5.10;;
71667;SDS011;59504;54.806;9.640;2023-02-12T09:17:58;23.67;;;4.85;;
71667;SDS011;59504;54.806;9.640;2023-02-12T09:20:23;18.52;;;5.03;;
71667;SDS011;59504;54.806;9.640;2023-02-12T09:22:44;18.58;;;5.65;;
71667;SDS011;59504;54.806;9.640;2023-02-12T09:25:05;19.55;;;5.15;;
71667;SDS011;59504;54.806;9.640;2023-02-12T09:27:26;17.80;;;5.82;;
71667;SDS011;59504;54.806;9.640;2023-02-12T09:29:47;20.98;;;6.50;;
71667;SDS011;59504;54.806;9.640;2023-02-12T09:32:08;23.48;;;6.82;;
71667;SDS011;59504;54.806;9.640;2023-02-12T09:34:29;24.88;;;6.78;;
71667;SDS011;59504;54.806;9.640;2023-02-12T09:36:53;19.17;;;6.82;;
71667;SDS011;59504;54.806;9.640;2023-02-12T09:39:14;20.10;;;7.03;;
71667;SDS011;59504;54.806;9.640;2023-02-12T09:49:09;14.18;;;4.28;;
71667;SDS011;59504;54.806;9.640;2023-02-12T09:51:50;13.00;;;4.05;;
71667;SDS011;59504;54.806;9.640;2023-02-12T09:54:14;8.15;;;3.20;;
71667;SDS011;59504;54.806;9.640;2023-02-12T09:59:00;8.15;;;2.80;;
71667;SDS011;59504;54.806;9.640;2023-02-12T10:01:26;9.18;;;3.08;;
71667;SDS011;59504;54.806;9.640;2023-02-12T10:03:48;5.93;;;2.70;;
71667;SDS011;59504;54.806;9.640;2023-02-12T10:06:16;5.30;;;2.50;;
71667;SDS011;59504;54.806;9.640;2023-02-12T10:11:20;9.02;;;2.80;;
71667;SDS011;59504;54.806;9.640;2023-02-12T10:14:05;8.07;;;2.72;;
71667;SDS011;59504;54.806;9.640;2023-02-12T10:26:47;5.93;;;2.58;;
71667;SDS011;59504;54.806;9.640;2023-02-12T10:29:31;8.35;;;3.25;;
71667;SDS011;59504;54.806;9.640;2023-02-12T10:31:57;6.47;;;3.88;;
71667;SDS011;59504;54.806;9.640;2023-02-12T10:34:26;8.15;;;3.80;;
71667;SDS011;59504;54.806;9.640;2023-02-12T10:36:53;5.95;;;3.25;;
71667;SDS011;59504;54.806;9.640;2023-02-12T10:39:23;4.35;;;2.63;;
71667;SDS011;59504;54.806;9.640;2023-02-12T10:44:23;5.78;;;2.20;;
71667;SDS011;59504;54.806;9.640;2023-02-12T10:46:45;2.20;;;1.33;;
71667;SDS011;59504;54.806;9.640;2023-02-12T10:49:06;3.58;;;2.03;;
71667;SDS011;59504;54.806;9.640;2023-02-12T10:53:53;4.60;;;1.47;;
71667;SDS011;59504;54.806;9.640;2023-02-12T10:56:18;2.35;;;1.30;;
71667;SDS011;59504;54.806;9.640;2023-02-12T11:01:16;5.25;;;1.90;;
71667;SDS011;59504;54.806;9.640;2023-02-12T11:03:39;4.40;;;2.20;;
71667;SDS011;59504;54.806;9.640;2023-02-12T11:06:13;8.13;;;3.95;;
71667;SDS011;59504;54.806;9.640;2023-02-12T11:08:36;11.40;;;6.65;;
71667;SDS011;59504;54.806;9.640;2023-02-12T11:11:02;15.20;;;8.25;;
71667;SDS011;59504;54.806;9.640;2023-02-12T11:13:32;17.17;;;8.40;;
71667;SDS011;59504;54.806;9.640;2023-02-12T11:15:53;15.95;;;8.23;;
71667;SDS011;59504;54.806;9.640;2023-02-12T11:20:50;14.60;;;7.53;;
71667;SDS011;59504;54.806;9.640;2023-02-12T11:23:35;14.45;;;6.88;;
71667;SDS011;59504;54.806;9.640;2023-02-12T11:25:59;10.48;;;5.82;;
71667;SDS011;59504;54.806;9.640;2023-02-12T11:31:44;4.50;;;2.55;;
71667;SDS011;59504;54.806;9.640;2023-02-12T11:33:34;3.30;;;1.80;;
71667;SDS011;59504;54.806;9.640;2023-02-12T11:36:18;2.10;;;1.13;;
71667;SDS011;59504;54.806;9.640;2023-02-12T11:38:56;3.25;;;0.88;;
71667;SDS011;59504;54.806;9.640;2023-02-12T11:41:38;1.88;;;0.98;;
71667;SDS011;59504;54.806;9.640;2023-02-12T11:44:16;2.08;;;0.93;;
71667;SDS011;59504;54.806;9.640;2023-02-12T11:46:46;1.10;;;0.75;;
71667;SDS011;59504;54.806;9.640;2023-02-12T11:49:12;2.58;;;1.20;;
71667;SDS011;59504;54.806;9.640;2023-02-12T11:51:46;1.95;;;1.17;;
71667;SDS011;59504;54.806;9.640;2023-02-12T11:54:14;2.55;;;0.77;;
71667;SDS011;59504;54.806;9.640;2023-02-12T11:56:41;2.88;;;1.05;;
71667;SDS011;59504;54.806;9.640;2023-02-12T11:59:38;4.22;;;1.23;;
71667;SDS011;59504;54.806;9.640;2023-02-12T12:02:13;2.88;;;1.30;;
71667;SDS011;59504;54.806;9.640;2023-02-12T12:04:41;2.58;;;1.20;;
71667;SDS011;59504;54.806;9.640;2023-02-12T12:07:10;2.72;;;1.10;;
71667;SDS011;59504;54.806;9.640;2023-02-12T12:12:38;1.90;;;0.57;;
71667;SDS011;59504;54.806;9.640;2023-02-12T12:17:59;1.20;;;0.73;;
71667;SDS011;59504;54.806;9.640;2023-02-12T12:20:48;1.45;;;0.93;;
71667;SDS011;59504;54.806;9.640;2023-02-12T12:23:19;2.20;;;0.90;;
71667;SDS011;59504;54.806;9.640;2023-02-12T12:26:27;2.17;;;1.00;;
71667;SDS011;59504;54.806;9.640;2023-02-12T12:28:56;1.42;;;0.80;;
71667;SDS011;59504;54.806;9.640;2023-02-12T12:31:58;0.80;;;0.70;;
71667;SDS011;59504;54.806;9.640;2023-02-12T12:34:27;2.38;;;1.05;;
71667;SDS011;59504;54.806;9.640;2023-02-12T12:58:28;0.45;;;0.40;;
71667;SDS011;59504;54.806;9.640;2023-02-12T13:03:34;0.75;;;0.38;;
71667;SDS011;59504;54.806;9.640;2023-02-12T13:06:22;1.88;;;0.60;;
71667;SDS011;59504;54.806;9.640;2023-02-12T13:11:37;1.60;;;1.17;;
71667;SDS011;59504;54.806;9.640;2023-02-12T13:14:34;2.35;;;1.23;;
71667;SDS011;59504;54.806;9.640;2023-02-12T13:16:59;1.80;;;1.15;;
71667;SDS011;59504;54.806;9.640;2023-02-12T13:21:46;0.88;;;0.52;;
71667;SDS011;59504;54.806;9.640;2023-02-12T13:27:29;2.67;;;1.05;;
71667;SDS011;59504;54.806;9.640;2023-02-12T13:30:41;1.60;;;0.63;;
71667;SDS011;59504;54.806;9.640;2023-02-12T13:32:39;1.02;;;0.57;;
71667;SDS011;59504;54.806;9.640;2023-02-12T13:35:05;2.33;;;0.50;;
71667;SDS011;59504;54.806;9.640;2023-02-12T13:39:50;1.27;;;0.60;;
71667;SDS011;59504;54.806;9.640;2023-02-12T13:44:49;0.77;;;0.35;;
71667;SDS011;59504;54.806;9.640;2023-02-12T13:52:56;1.13;;;0.32;;
71667;SDS011;59504;54.806;9.640;2023-02-12T13:55:45;1.45;;;0.50;;
71667;SDS011;59504;54.806;9.640;2023-02-12T14:03:23;4.30;;;1.38;;
71667;SDS011;59504;54.806;9.640;2023-02-12T14:05:48;3.85;;;1.67;;
71667;SDS011;59504;54.806;9.640;2023-02-12T14:11:49;1.10;;;0.80;;
71667;SDS011;59504;54.806;9.640;2023-02-12T14:14:12;2.92;;;1.00;;
71667;SDS011;59504;54.806;9.640;2023-02-12T14:16:48;1.55;;;1.13;;
71667;SDS011;59504;54.806;9.640;2023-02-12T14:22:12;2.70;;;1.50;;
71667;SDS011;59504;54.806;9.640;2023-02-12T14:24:56;3.08;;;1.55;;
71667;SDS011;59504;54.806;9.640;2023-02-12T14:37:45;2.40;;;1.55;;
71667;SDS011;59504;54.806;9.640;2023-02-12T14:42:55;3.30;;;1.83;;
71667;SDS011;59504;54.806;9.640;2023-02-12T14:45:26;4.85;;;2.40;;
71667;SDS011;59504;54.806;9.640;2023-02-12T14:47:55;4.00;;;2.42;;
71667;SDS011;59504;54.806;9.640;2023-02-12T14:50:24;4.78;;;2.30;;
71667;SDS011;59504;54.806;9.640;2023-02-12T14:52:50;5.13;;;2.22;;
71667;SDS011;59504;54.806;9.640;2023-02-12T14:55:24;5.13;;;2.10;;
71667;SDS011;59504;54.806;9.640;2023-02-12T14:57:47;4.55;;;2.03;;
71667;SDS011;59504;54.806;9.640;2023-02-12T15:00:19;5.47;;;2.42;;
71667;SDS011;59504;54.806;9.640;2023-02-12T15:02:43;4.47;;;2.38;;
71667;SDS011;59504;54.806;9.640;2023-02-12T15:05:21;5.18;;;2.53;;
71667;SDS011;59504;54.806;9.640;2023-02-12T15:07:52;7.35;;;2.53;;
71667;SDS011;59504;54.806;9.640;2023-02-12T15:10:18;5.38;;;2.90;;
71667;SDS011;59504;54.806;9.640;2023-02-12T15:12:56;5.05;;;2.60;;
71667;SDS011;59504;54.806;9.640;2023-02-12T15:15:34;6.80;;;2.40;;
71667;SDS011;59504;54.806;9.640;2023-02-12T15:18:21;8.32;;;3.10;;
71667;SDS011;59504;54.806;9.640;2023-02-12T15:20:50;8.27;;;3.10;;
71667;SDS011;59504;54.806;9.640;2023-02-12T15:26:33;7.18;;;2.55;;
71667;SDS011;59504;54.806;9.640;2023-02-12T15:29:12;8.70;;;2.90;;
71667;SDS011;59504;54.806;9.640;2023-02-12T15:31:40;5.38;;;2.67;;
71667;SDS011;59504;54.806;9.640;2023-02-12T15:34:02;7.57;;;3.17;;
71667;SDS011;59504;54.806;9.640;2023-02-12T15:36:25;8.55;;;3.20;;
71667;SDS011;59504;54.806;9.640;2023-02-12T15:38:48;7.97;;;2.65;;
71667;SDS011;59504;54.806;9.640;2023-02-12T15:43:51;3.97;;;2.65;;
71667;SDS011;59504;54.806;9.640;2023-02-12T15:46:15;9.40;;;2.83;;
71667;SDS011;59504;54.806;9.640;2023-02-12T15:48:37;4.93;;;2.63;;
71667;SDS011;59504;54.806;9.640;2023-02-12T15:51:20;8.23;;;2.83;;
71667;SDS011;59504;54.806;9.640;2023-02-12T15:53:58;7.32;;;2.60;;
71667;SDS011;59504;54.806;9.640;2023-02-12T15:56:21;5.15;;;2.53;;
71667;SDS011;59504;54.806;9.640;2023-02-12T15:58:48;8.77;;;3.58;;
71667;SDS011;59504;54.806;9.640;2023-02-12T16:01:13;7.03;;;2.85;;
71667;SDS011;59504;54.806;9.640;2023-02-12T16:03:39;6.30;;;2.35;;
71667;SDS011;59504;54.806;9.640;2023-02-12T16:06:09;6.07;;;2.50;;
71667;SDS011;59504;54.806;9.640;2023-02-12T16:08:36;8.20;;;2.42;;
71667;SDS011;59504;54.806;9.640;2023-02-12T16:10:58;7.72;;;2.75;;
71667;SDS011;59504;54.806;9.640;2023-02-12T16:13:23;6.70;;;2.33;;
71667;SDS011;59504;54.806;9.640;2023-02-12T16:16:02;8.23;;;2.42;;
71667;SDS011;59504;54.806;9.640;2023-02-12T16:18:32;7.10;;;2.30;;
71667;SDS011;59504;54.806;9.640;2023-02-12T16:21:04;10.80;;;2.35;;
71667;SDS011;59504;54.806;9.640;2023-02-12T16:23:30;8.18;;;2.60;;
71667;SDS011;59504;54.806;9.640;2023-02-12T16:25:52;7.93;;;2.30;;
71667;SDS011;59504;54.806;9.640;2023-02-12T16:28:15;11.38;;;2.75;;
71667;SDS011;59504;54.806;9.640;2023-02-12T16:30:40;7.53;;;2.15;;
71667;SDS011;59504;54.806;9.640;2023-02-12T16:33:02;8.07;;;2.67;;
71667;SDS011;59504;54.806;9.640;2023-02-12T16:35:28;9.60;;;2.42;;
71667;SDS011;59504;54.806;9.640;2023-02-12T16:48:37;115.28;;;34.17;;
71667;SDS011;59504;54.806;9.640;2023-02-12T16:50:32;76.03;;;32.20;;
71667;SDS011;59504;54.806;9.640;2023-02-12T16:53:04;32.50;;;13.80;;
71667;SDS011;59504;54.806;9.640;2023-02-12T16:57:48;68.28;;;38.80;;
71667;SDS011;59504;54.806;9.640;2023-02-12T17:00:13;22.92;;;15.63;;
71667;SDS011;59504;54.806;9.640;2023-02-12T17:02:35;10.40;;;6.20;;
71667;SDS011;59504;54.806;9.640;2023-02-12T17:04:57;10.80;;;4.05;;
71667;SDS011;59504;54.806;9.640;2023-02-12T17:07:21;6.43;;;2.70;;
71667;SDS011;59504;54.806;9.640;2023-02-12T17:09:47;5.05;;;2.38;;
71667;SDS011;59504;54.806;9.640;2023-02-12T17:12:08;9.93;;;2.58;;
71667;SDS011;59504;54.806;9.640;2023-02-12T17:14:29;9.55;;;2.67;;
71667;SDS011;59504;54.806;9.640;2023-02-12T17:16:50;10.80;;;2.85;;
71667;SDS011;59504;54.806;9.640;2023-02-12T17:19:11;10.93;;;2.33;;
71667;SDS011;59504;54.806;9.640;2023-02-12T17:21:33;9.00;;;2.95;;
71667;SDS011;59504;54.806;9.640;2023-02-12T17:23:59;9.80;;;3.00;;